Погода Хаммерштейнна неделю

Карас, Намибия

03 - 09 марта
  • 03марта
    Сегодня
    +20°
    +37°
    Практически безоблачно
    ВремяПогодаТемператураВлажностьДавлениеВетер, м/сВероятность осадков
    02:00Практически безоблачно+26°C39 %653 мм2.3 м/с15 %
    05:00Облачно с прояснениями+25°C39 %652 мм3.6 м/с13 %
    08:00Ясно и безоблачно+27°C36 %654 мм1.7 м/с5 %
    11:00Ясно и безоблачно+33°C25 %655 мм2.4 м/с5 %
    14:00Практически безоблачно+37°C12 %654 мм3.8 м/с5 %
    17:00Практически безоблачно+35°C11 %653 мм7.3 м/с5 %
    20:00Ясно и безоблачно+32°C11 %652 мм7.1 м/с5 %
    23:00Ясно и безоблачно+27°C18 %652 мм6.0 м/с5 %
  • 04марта
    Понедельник
    +15°
    +36°
    Практически безоблачно
    ВремяПогодаТемператураВлажностьДавлениеВетер, м/сВероятность осадков
    02:00Ясно и безоблачно+24°C22 %651 мм5.3 м/с5 %
    05:00Небольшая облачность+21°C24 %650 мм2.3 м/с5 %
    08:00Небольшая облачность+23°C22 %651 мм0.5 м/с5 %
    11:00Ясно и безоблачно+30°C10 %653 мм4.3 м/с5 %
    14:00Практически безоблачно+35°C9 %652 мм6.9 м/с5 %
    17:00Практически безоблачно+33°C13 %651 мм9.5 м/с5 %
    20:00Небольшая облачность+27°C24 %651 мм7.1 м/с5 %
    23:00Небольшая облачность+22°C41 %651 мм5.4 м/с5 %
  • 05марта
    Вторник
    +18°
    +32°
    Небольшая облачность
    ВремяПогодаТемператураВлажностьДавлениеВетер, м/сВероятность осадков
    02:00Ясно и безоблачно+20°C48 %651 мм2.4 м/с5 %
    05:00Ясно и безоблачно+18°C53 %650 мм2.6 м/с5 %
    08:00Ясно и безоблачно+16°C64 %651 мм5.6 м/с5 %
    11:00Ясно и безоблачно+23°C35 %653 мм3.6 м/с5 %
    14:00Небольшая облачность+29°C22 %652 мм2.7 м/с5 %
    17:00Небольшая облачность+31°C17 %651 мм2.4 м/с5 %
    20:00Ясно и безоблачно+28°C11 %651 мм6.3 м/с5 %
    23:00Ясно и безоблачно+24°C18 %652 мм4.3 м/с5 %
  • 06марта
    Среда
    +19°
    +35°
    Ясно и безоблачно
    ВремяПогодаТемператураВлажностьДавлениеВетер, м/сВероятность осадков
    02:00Ясно и безоблачно+21°C27 %651 мм2.1 м/с5 %
    05:00Ясно и безоблачно+19°C23 %650 мм3.4 м/с5 %
    08:00Ясно и безоблачно+21°C16 %652 мм2.9 м/с5 %
    11:00Ясно и безоблачно+28°C18 %653 мм3.0 м/с5 %
    14:00Ясно и безоблачно+33°C13 %653 мм2.7 м/с5 %
    17:00Ясно и безоблачно+35°C12 %652 мм5.1 м/с5 %
    20:00Ясно и безоблачно+29°C15 %652 мм7.4 м/с5 %
    23:00Ясно и безоблачно+24°C24 %653 мм6.7 м/с5 %
  • 07марта
    Четверг
    +19°
    +35°
    Ясно и безоблачно
    ВремяПогодаТемператураВлажностьДавлениеВетер, м/сВероятность осадков
    02:00Ясно и безоблачно+22°C25 %652 мм3.1 м/с5 %
    05:00Ясно и безоблачно+20°C28 %651 мм2.8 м/с5 %
    08:00Ясно и безоблачно+22°C29 %653 мм1.3 м/с5 %
    11:00Ясно и безоблачно+30°C21 %655 мм0.9 м/с5 %
    14:00Ясно и безоблачно+34°C13 %654 мм2.9 м/с5 %
    17:00Ясно и безоблачно+35°C14 %652 мм3.5 м/с5 %
    20:00Ясно и безоблачно+31°C19 %652 мм7.6 м/с5 %
    23:00Ясно и безоблачно+26°C27 %653 мм5.1 м/с5 %
Мы используем cookies
Соглашаюсь